Волгореченск

Карта отелей и гостиниц, располагающихся рядом с аэропортом Волгореченск :

Волгореченск Костромская область 57° 25' 43.8816" N, 41° 10' 24.0492" E
Волгореченск Костромская область 57° 25' 43.8816" N, 41° 10' 24.0492" E
Код аэродрома ИКАО
HH9X
Код аэродрома RU
ХХ9Ь
Координаты
N57.42886° E041.17335°
Превышение над уровнем моря
110
Основная полоса
12/30
Курс магнитный
114,8/294,8
Длина основной ВПП
30
Ширина основной ВПП
28
Покрытие основной ВПП
Твёрдое (асфальт)
Освещение ВПП
Нет
Тип: 
Вертодром
Класс аэродрома: 
Принадлежность: 
ГА
Статус: 
Недействующий
Сайт: 
E-mail аэродрома: 
Страна: 
Россия
Регион: 
Костромская область
Город: 
Дополнительная информация: 


Найти трансфер

С помощью этой формы Вы можете найти трансфер из аэропорта Волгореченск в город, аэропорт или вокзал:

Погода в аэропортах:

Авиационная погода в Гомеле

Регион: 
Погода METAR: 
UMGG 212300Z 28007G12MPS 5000 -SHRA BKN015CB 13/11 Q1000 NOSIG
Время наблюдения
2022-05-21T23:00:00Z
Температура C
13.0
Точка росы
11.0
Направление ветра
280
Скорость ветра (узлы)
14
Метео видимость
3.11
Облачность
BKN
Нижняя граница облачности (футы)
1500
Явления погоды
-SHRA
Условия полета
MVFR
Аэропорт подробнее: 
BKN – значительная (рассеянная, разорванная) облачность;
-SHRA - слабый ливневой дождь;

Авиационная погода в Рощино

Регион: 
Погода METAR: 
USTR 212300Z 17005MPS 9999 -SHRA BKN016CB 09/08 Q0989 R21/290060 R30/////99 TEMPO 2100 -SHRA BR BKN004 BKN016CB
Время наблюдения
2022-05-21T23:00:00Z
Температура C
9.0
Точка росы
8.0
Направление ветра
170
Скорость ветра (узлы)
10
Метео видимость
6.21
Облачность
BKN
Нижняя граница облачности (футы)
1600
Явления погоды
-SHRA
Условия полета
MVFR
Аэропорт подробнее: 
BKN – значительная (рассеянная, разорванная) облачность;
-SHRA - слабый ливневой дождь;

Авиационная погода в Берлевоге

Регион: 
Погода METAR: 
ENBV 212250Z AUTO 11010KT 9999 -RA FEW009 BKN036 OVC046 04/02 Q1013
Время наблюдения
2022-05-21T22:50:00Z
Температура C
4.0
Точка росы
2.0
Направление ветра
110
Скорость ветра (узлы)
10
Метео видимость
6.21
Облачность
FEW
BKN
OVC
Нижняя граница облачности (футы)
900
3600
4600
Явления погоды
-RA
Условия полета
VFR
FEW – незначительная облачность; BKN – значительная (рассеянная, разорванная) облачность; OVC – сплошная облачность;
-RA - слабый дождь;

Авиационная погода в Храброво

Регион: 
Погода METAR: 
UMKK 212300Z 29009MPS 9000 -RA BKN005 OVC017 09/09 Q1007 R24/290095 NOSIG RMK QBB150 OBST OBSC QFE754/1005
Время наблюдения
2022-05-21T23:00:00Z
Температура C
9.0
Точка росы
9.0
Направление ветра
290
Скорость ветра (узлы)
17
Метео видимость
5.59
Облачность
BKN
OVC
Нижняя граница облачности (футы)
500
1700
Явления погоды
-RA
Условия полета
IFR
Аэропорт подробнее: 
BKN – значительная (рассеянная, разорванная) облачность; OVC – сплошная облачность;
-RA - слабый дождь;